AirNav   Air Wisconsin pilot careers
 
 1120 users online  

KEGT Wellington Municipal Airport
Wellington, Kansas, USA

GOING TO WELLINGTON?


FAA INFORMATION EFFECTIVE 01 FEBRUARY 2018

Location

FAA Identifier: EGT
Lat/Long: 37-19-25.0000N / 097-23-18.0000W
37-19.416667N / 097-23.300000W
37.3236111 / -97.3883333
(estimated)
Elevation: 1277.1 ft. / 389.3 m (surveyed)
Variation: 07E (1990)
From city: 3 miles N of WELLINGTON, KS
Time zone: UTC -6 (UTC -5 during Daylight Saving Time)
Zip code: 67152

Airport Operations

Airport use: Open to the public
Activation date: 11/1942
Control tower: no
ARTCC: KANSAS CITY CENTER
FSS: WICHITA FLIGHT SERVICE STATION
NOTAMs facility: ICT (NOTAM-D service available)
Attendance: 0800-1700
Wind indicator: lighted
Segmented circle: no
Lights: ACTVT HIRL RY 17/35; REIL RYS 17 & 35 - CTAF. PAPI RYS 17 & 35 ARE ON 24 HRS.
Beacon: white-green (lighted land airport)
Operates sunset to sunrise.

Airport Communications

CTAF/UNICOM: 122.8
WX AWOS-3: 118.875 (620-326-2470)
WICHITA APPROACH: 134.85
WICHITA DEPARTURE: 134.85
WX ASOS at WLD (19 nm SE): 118.025 (620-221-9121)
WX ASOS at ICT (20 nm N): PHONE 316-945-8022

Nearby radio navigation aids

VOR radial/distance  VOR name  Freq  Var
ICTr153/27.0WICHITA VORTAC113.8007E
PERr336/36.3PIONEER VORTAC113.2006E
ANYr068/38.7ANTHONY VORTAC112.9007E

Airport Services

Fuel available: 100LL JET-A
FOR JET A AFT HRS CALL 316-440-2213.
SELF SVC FUEL 100LL AVBL 24 HR WITH CREDIT CARD.
Parking: tiedowns
Airframe service: MAJOR
Powerplant service: MAJOR
Bottled oxygen: NONE
Bulk oxygen: NONE

Runway Information

Runway 17/35

Dimensions: 4201 x 100 ft. / 1280 x 30 m
Surface: concrete, in good condition
Weight bearing capacity: 
Single wheel: 49.0
Double wheel: 60.0
Runway edge lights: high intensity
RUNWAY 17  RUNWAY 35
Latitude: 37-19.763397N37-19.071310N
Longitude: 097-23.304653W097-23.295988W
Elevation: 1276.5 ft.1271.1 ft.
Gradient: 0.2%0.2%
Traffic pattern: leftleft
Runway heading: 172 magnetic, 179 true352 magnetic, 359 true
Markings: nonprecision, in good conditionnonprecision, in good condition
Visual slope indicator: 2-light PAPI on left (3.00 degrees glide path)2-light PAPI on left (3.00 degrees glide path)
Runway end identifier lights: yesyes
Touchdown point: yes, no lightsyes, no lights

Airport Ownership and Management from official FAA records

Ownership: Publicly-owned
Owner: CITY OF WELLINGTON
441 NORTH WEST ROAD
WELLINGTON, KS 67152
Phone (620) 440-2213
Manager: MATTHEW D. WIEBE
441 NORTH WEST ROAD
WELLINGTON, KS 67152
Phone (620) 440-2213
TERMINAL BLDG. PHONE 620-440-2213 FAX 620-326-6163

Airport Operational Statistics

Aircraft based on the field: 32
Single engine airplanes: 28
Multi engine airplanes: 4
    
Aircraft operations: avg 50/day *
54% transient general aviation
44% local general aviation
1% commercial
<1% military
* for 12-month period ending 03 September 2015

Additional Remarks

FOR AFT HRS ASSISTANCE CALL 620-440-2213.
KEY CODE FOR PILOT LOUNGE 1228

Instrument Procedures

NOTE: All procedures below are presented as PDF files. If you need a reader for these files, you should download the free Adobe Reader.

NOT FOR NAVIGATION. Please procure official charts for flight.
FAA instrument procedures published for use between 1 February 2018 at 0901Z and 1 March 2018 at 0900Z.

 
IAPs - Instrument Approach Procedures
RNAV (GPS) RWY 17   download (233KB)
RNAV (GPS) RWY 35   download (248KB)
VOR RWY 17   download (232KB)
NOTE: Special Take-Off Minimums/Departure Procedures apply   download (147KB)

Other nearby airports with instrument procedures:

KIAB - Mc Connell Air Force Base (19 nm N)
KWLD - Strother Field Airport (19 nm SE)
KICT - Wichita Dwight D Eisenhower National Airport (20 nm N)
KCEA - Cessna Aircraft Field Airport (21 nm N)
KBEC - Beech Factory Airport (24 nm N)
 
Loc | Ops | Rwys | IFR | FBO | Links
Com | Nav | Svcs | Stats | Notes

Kansas City Aviation Department
 
Area around KEGT (Wellington Municipal Airport)
 
Road maps at: MapQuest Bing Google
 
Aerial photo
WARNING: Photo may not be current or correct
Aerial photo of KEGT (Wellington Municipal Airport)
Photo taken 04-Sep-2015
looking east.

Do you have a better or more recent aerial photo of Wellington Municipal Airport that you would like to share? If so, please send us your photo.

 
Sectional chart

 
Airport distance calculator
Flying to Wellington Municipal Airport? Find the distance to fly.

From to KEGT

Sunrise and sunset
Times for 19-Feb-2018
 Local
(UTC-6)
 Zulu
(UTC)
Morning civil twilight06:4812:48
Sunrise07:1513:15
Sunset18:1200:12
Evening civil twilight18:3900:39

Current date and time
Zulu (UTC)  19-Feb-2018 14:44:28
Local (UTC-6)  19-Feb-2018 08:44:28
 
METAR
KIAB 
19nm N 
191414Z AUTO 34012KT 10SM OVC010 03/M01 A2973 RMK AO2 CIG 009 RWY19 SLP074
KWLD 
19nm SE 
191441Z AUTO 30012KT 10SM BKN013 OVC020 09/06 A2974 RMK AO2 PK WND 20028/1355 WSHFT 1416 PRESRR T00890061
KICT 
20nm N 
191353Z 34018G23KT 10SM OVC011 03/M01 A2973 RMK AO2 SLP071 T00331006
KBEC 
24nm N 
191435Z AUTO 32013G19KT 10SM OVC010 02/M02 A2975 RMK AO2 LTG DSNT SE T00211016
K3AU 
26nm NE 
191435Z AUTO 31014G18KT 10SM OVC010 02/00 A2975 RMK AO2
KAAO 
27nm N 
191354Z AUTO 32016KT 10SM OVC010 03/00 A2973 RMK AO2 PK WND 31026/1314 SLP071 T00280000
K1K1 
30nm NE 
191430Z AUTO 33014G18KT 10SM OVC011 02/M01 A2975 RMK AO2 T00231010
8K2 
31nm W 
SuperAWOS
191355Z AUTO 00000KT 02/M03 A2977
KBKN 
35nm S 
191435Z AUTO 18019G26KT 10SM BKN021 BKN029 BKN085 18/17 A2972 RMK AO2 LTG DSNT E-SW
TAF
KIAB 
19nm N 
191324Z 1913/2016 33020G25KT 9999 BKN009 OVC020 QNH2955INS TEMPO 1915/1918 19020G35KT 6000 -TSRA BKN008CB OVC010 BECMG 1920/1921 24010G15KT 9999 BKN015 OVC030 QNH2960INS BECMG 2002/2003 35009KT 9999 SCT010 BKN020 OVC050 QNH2965INS TX08/1913Z TNM01/2000Z
KICT 
20nm N 
191300Z 1913/2012 33017G25KT P6SM OVC012 FM191500 35017G25KT P6SM VCSH OVC015 FM192200 01013KT P6SM OVC015
NOTAMs
Click for the latest NOTAMs
NOTAMs are issued by the DoD/FAA and will open in a separate window not controlled by AirNav.

 

 
 

FBO, Fuel Providers, and Aircraft Ground Support

  
 Business Name 
 
 Contact 
 
 Services / Description 
 
Fuel Prices
 
Comments
  
 Wellington Municipal Airport
620-440-2213
[web site]
[email]
Airport management, Aviation fuel, Aircraft parking (ramp or tiedown), Hangars, Passenger terminal and lounge, Flight training, Aircraft modifications, Pilot supplies, ...
 
Courtesy car   Enterprise Rent-A-Car  
 
More info about Wellington Municipal Airport
Avfuel
100LL Jet A
AS $4.25 --- 
FS --- $3.20 
 Updated 08-Feb-2018
 
   3 read write
AS=Assisted/Self Service
FS=Full service
Update Fuel Prices
 

Aviation Businesses, Services, and Facilities

  
 Business Name 
 
 Contact 
 
 Services / Description 
 
Distance
 
Comments
  
Air Plains Services 620-326-8904
toll-free 1-800-752-8481
[web site]
[email]
Aircraft maintenance, Aircraft modifications, Aircraft painting, Aircraft interiors, Aircraft parts

More info about Air Plains Services
on airport  
   write
 

Would you like to see your business listed on this page?

 If your business provides an interesting product or service to pilots, flight crews, aircraft, or users of the Wellington Municipal Airport, you should consider listing it here.  To start the listing process, click on the button below
 
Add a business
 

Other Pages about Wellington Municipal Airport

cityofwellington.net/municipal-airport
 
Update a link
 
Copyright © AirNav, LLC. All rights reserved. Privacy Policy  Contact